createdAt,value
2022-09-03T00:02:22.432Z,7.85
2022-09-03T00:05:15.746Z,8.63
2022-09-03T00:08:02.644Z,5.93
2022-09-03T00:11:01.540Z,6.78
2022-09-03T00:13:55.785Z,6.40
2022-09-03T00:16:29.637Z,7.03
2022-09-03T00:19:03.838Z,7.73
2022-09-03T00:21:47.492Z,8.63
2022-09-03T00:24:18.658Z,5.10
2022-09-03T00:26:51.935Z,4.93
2022-09-03T00:29:31.250Z,7.97
2022-09-03T00:32:07.018Z,7.47
2022-09-03T00:34:43.530Z,9.87
2022-09-03T00:37:14.337Z,12.17
2022-09-03T00:39:43.316Z,6.53
2022-09-03T00:42:52.085Z,4.43
2022-09-03T00:45:33.949Z,11.00
2022-09-03T00:48:30.897Z,7.90
2022-09-03T00:51:34.469Z,6.33
2022-09-03T00:54:34.032Z,5.47
2022-09-03T00:57:47.295Z,6.77
2022-09-03T01:53:39.086Z,10.70
2022-09-03T02:23:34.468Z,9.40
2022-09-03T02:26:03.571Z,6.17
2022-09-03T02:55:39.532Z,6.97
2022-09-03T02:58:06.956Z,6.57
2022-09-03T05:06:47.835Z,7.65
2022-09-03T06:04:54.677Z,7.25
2022-09-03T06:07:53.359Z,4.55
2022-09-03T06:10:25.612Z,8.57
2022-09-03T06:12:54.061Z,8.50
2022-09-03T06:15:21.029Z,7.72
2022-09-03T06:17:47.989Z,6.60
2022-09-03T06:20:15.359Z,19.08
2022-09-03T06:22:42.315Z,8.43
2022-09-03T06:25:10.163Z,8.45
2022-09-03T06:27:37.119Z,6.70
2022-09-03T06:30:04.723Z,11.18
2022-09-03T06:32:31.710Z,8.57
2022-09-03T06:34:58.729Z,8.13
2022-09-03T06:37:25.711Z,10.30
2022-09-03T06:39:53.123Z,5.90
2022-09-03T06:42:20.579Z,14.20
2022-09-03T07:08:12.136Z,14.55
2022-09-03T07:10:39.344Z,10.25
2022-09-03T07:13:06.727Z,10.73
2022-09-03T07:15:34.241Z,5.70
2022-09-03T07:18:01.253Z,5.65
2022-09-03T07:20:28.223Z,7.10
2022-09-03T07:22:56.852Z,10.15
2022-09-03T07:25:26.365Z,7.70
2022-09-03T07:27:53.691Z,12.77
2022-09-03T07:30:20.850Z,5.50
2022-09-03T07:32:51.034Z,9.35
2022-09-03T07:35:19.431Z,13.13
2022-09-03T07:37:48.686Z,13.50
2022-09-03T07:40:18.206Z,5.07
2022-09-03T07:42:45.193Z,8.77
2022-09-03T07:45:13.567Z,4.82
2022-09-03T07:47:56.752Z,6.20
2022-09-03T07:50:24.052Z,9.48
2022-09-03T07:53:04.358Z,18.42
2022-09-03T07:55:31.287Z,7.20
2022-09-03T07:57:59.777Z,7.13
2022-09-03T08:00:26.840Z,10.40
2022-09-03T08:02:56.739Z,11.63
2022-09-03T08:05:23.705Z,8.73
2022-09-03T08:07:51.011Z,6.57
2022-09-03T08:10:18.041Z,9.27
2022-09-03T08:12:45.034Z,7.88
2022-09-03T08:15:11.994Z,9.68
2022-09-03T08:17:39.027Z,12.43
2022-09-03T08:20:06.413Z,13.23
2022-09-03T08:22:34.117Z,7.55
2022-09-03T08:25:01.739Z,7.55
2022-09-03T08:27:29.176Z,3.03
2022-09-03T08:29:56.201Z,11.55
2022-09-03T08:32:23.223Z,4.97
2022-09-03T08:34:52.288Z,7.45
2022-09-03T08:37:19.276Z,5.57
2022-09-03T08:39:46.318Z,6.35
2022-09-03T08:42:41.928Z,13.57
2022-09-03T08:45:16.381Z,5.97
2022-09-03T08:47:55.623Z,5.45
2022-09-03T08:50:31.686Z,5.13
2022-09-03T08:53:21.278Z,3.42
2022-09-03T08:56:09.135Z,8.90
2022-09-03T08:58:43.977Z,2.63
2022-09-03T09:01:36.517Z,4.32
2022-09-03T09:04:32.221Z,4.10
2022-09-03T09:07:22.635Z,9.25
2022-09-03T09:10:10.901Z,4.55
2022-09-03T09:13:09.585Z,5.05
2022-09-03T09:15:54.859Z,1.67
2022-09-03T09:19:16.205Z,6.40
2022-09-03T09:22:24.346Z,3.55
2022-09-03T09:24:54.424Z,5.32
2022-09-03T09:27:21.733Z,3.40
2022-09-03T09:29:52.350Z,5.85
2022-09-03T09:32:21.644Z,3.25
2022-09-03T09:34:52.303Z,5.07
2022-09-03T09:37:19.964Z,2.75
2022-09-03T09:40:01.067Z,5.53
2022-09-03T09:42:31.085Z,5.60
2022-09-03T09:45:08.550Z,4.13
2022-09-03T09:47:40.036Z,5.53
2022-09-03T09:50:26.188Z,3.45
2022-09-03T09:53:30.230Z,4.57
2022-09-03T09:55:58.395Z,1.90
2022-09-03T09:58:33.221Z,1.80
2022-09-03T10:01:13.460Z,1.58
2022-09-03T10:04:33.386Z,2.90
2022-09-03T10:07:25.897Z,2.00
2022-09-03T10:10:22.131Z,5.03
2022-09-03T10:13:12.606Z,2.03
2022-09-03T10:16:14.482Z,3.28
2022-09-03T10:18:47.237Z,6.00
2022-09-03T10:21:57.858Z,3.85
2022-09-03T10:24:58.198Z,5.40
2022-09-03T10:27:25.991Z,4.00
2022-09-03T10:29:53.575Z,5.78
2022-09-03T10:32:39.796Z,3.72
2022-09-03T10:35:29.743Z,4.60
2022-09-03T10:38:34.693Z,4.20
2022-09-03T10:42:07.097Z,2.17
2022-09-03T10:44:52.819Z,4.93
2022-09-03T10:47:43.487Z,6.65
2022-09-03T10:50:27.200Z,2.83
2022-09-03T10:53:24.914Z,2.67
2022-09-03T10:56:04.120Z,2.25
2022-09-03T10:58:57.614Z,5.32
2022-09-03T11:02:21.918Z,4.55
2022-09-03T11:05:16.705Z,2.47
2022-09-03T11:07:58.518Z,5.75
2022-09-03T11:10:33.759Z,3.70
2022-09-03T11:13:07.706Z,4.13
2022-09-03T11:15:52.856Z,6.55
2022-09-03T11:18:51.311Z,3.95
2022-09-03T11:21:23.732Z,3.63
2022-09-03T11:24:23.330Z,3.28
2022-09-03T11:27:16.703Z,3.80
2022-09-03T11:30:34.335Z,3.03
2022-09-03T11:33:10.429Z,2.60
2022-09-03T11:35:38.836Z,1.67
2022-09-03T11:38:16.713Z,5.75
2022-09-03T11:41:00.162Z,2.67
2022-09-03T11:43:31.367Z,4.82
2022-09-03T11:46:21.871Z,2.03
2022-09-03T11:49:02.349Z,3.45
2022-09-03T11:51:32.008Z,4.15
2022-09-03T11:54:13.845Z,6.50
2022-09-03T11:56:42.669Z,2.88
2022-09-03T11:59:19.709Z,1.98
2022-09-03T12:01:59.167Z,1.70
2022-09-03T12:04:54.666Z,2.10
2022-09-03T12:07:49.332Z,2.55
2022-09-03T12:10:51.886Z,2.50
2022-09-03T12:13:43.326Z,6.18
2022-09-03T12:16:39.370Z,2.35
2022-09-03T12:19:27.940Z,4.00
2022-09-03T12:21:56.549Z,1.67
2022-09-03T12:24:37.803Z,2.05
2022-09-03T12:27:05.841Z,2.65
2022-09-03T12:29:33.182Z,1.10
2022-09-03T12:32:11.723Z,1.60
2022-09-03T12:34:38.762Z,5.05
2022-09-03T12:38:04.341Z,1.73
2022-09-03T12:40:23.022Z,3.17
2022-09-03T12:42:50.770Z,2.40
2022-09-03T12:46:09.360Z,4.13
2022-09-03T12:48:19.138Z,3.67
2022-09-03T12:50:56.219Z,1.15
2022-09-03T12:53:26.903Z,2.75
2022-09-03T12:56:01.494Z,5.85
2022-09-03T12:58:40.381Z,2.40
2022-09-03T13:01:22.510Z,4.85
2022-09-03T13:04:30.198Z,4.30
2022-09-03T13:07:05.110Z,2.03
2022-09-03T13:09:37.712Z,6.43
2022-09-03T13:12:06.013Z,2.83
2022-09-03T13:14:44.534Z,2.13
2022-09-03T13:17:26.336Z,1.70
2022-09-03T13:20:29.417Z,3.47
2022-09-03T13:23:09.110Z,4.00
2022-09-03T13:26:06.121Z,1.48
2022-09-03T13:29:01.842Z,2.15
2022-09-03T13:31:48.011Z,2.70
2022-09-03T13:34:30.345Z,2.38
2022-09-03T13:37:23.977Z,2.25
2022-09-03T13:39:59.828Z,1.67
2022-09-03T13:42:45.751Z,1.48
2022-09-03T13:45:38.812Z,2.72
2022-09-03T13:48:43.036Z,3.72
2022-09-03T13:51:19.508Z,1.27
2022-09-03T13:54:10.012Z,1.23
2022-09-03T13:57:04.239Z,4.60
2022-09-03T14:00:10.617Z,2.35
2022-09-03T14:02:58.020Z,1.13
2022-09-03T14:06:02.065Z,2.65
2022-09-03T14:09:04.754Z,10.55
2022-09-03T14:11:40.646Z,1.45
2022-09-03T14:14:37.113Z,1.23
2022-09-03T14:17:37.645Z,5.65
2022-09-03T14:20:22.385Z,1.40
2022-09-03T14:23:42.026Z,1.20
2022-09-03T14:26:38.553Z,0.70
2022-09-03T14:29:12.439Z,1.42
2022-09-03T14:32:22.987Z,2.75
2022-09-03T14:35:29.486Z,2.17
2022-09-03T14:38:26.465Z,0.98
2022-09-03T14:41:14.015Z,3.22
2022-09-03T14:44:18.877Z,3.67
2022-09-03T14:47:21.864Z,2.17
2022-09-03T14:50:24.973Z,1.45
2022-09-03T14:53:30.080Z,5.10
2022-09-03T14:56:15.424Z,4.32
2022-09-03T14:59:23.167Z,2.33
2022-09-03T15:02:24.517Z,4.38
2022-09-03T15:05:11.018Z,1.35
2022-09-03T15:07:53.743Z,2.28
2022-09-03T15:10:55.899Z,3.05
2022-09-03T15:13:42.469Z,3.58
2022-09-03T15:16:19.303Z,1.45
2022-09-03T15:19:13.572Z,4.10
2022-09-03T15:22:06.233Z,3.03
2022-09-03T15:24:54.141Z,1.42
2022-09-03T15:28:22.080Z,3.67
2022-09-03T15:31:17.471Z,2.90
2022-09-03T15:34:06.083Z,2.58
2022-09-03T15:36:41.898Z,1.02
2022-09-03T15:39:35.237Z,1.83
2022-09-03T15:42:08.401Z,1.27
2022-09-03T15:44:48.163Z,1.38
2022-09-03T15:47:51.452Z,1.60
2022-09-03T15:50:52.733Z,1.13
2022-09-03T15:53:48.326Z,1.50
2022-09-03T15:56:53.215Z,3.20
2022-09-03T15:59:49.857Z,3.92
2022-09-03T16:02:24.738Z,4.65
2022-09-03T16:05:16.358Z,2.25
2022-09-03T16:07:49.013Z,3.15
2022-09-03T16:10:26.332Z,3.80
2022-09-03T16:13:39.310Z,5.07
2022-09-03T16:16:11.616Z,3.08
2022-09-03T16:19:21.084Z,1.70
2022-09-03T16:22:13.778Z,1.67
2022-09-03T16:24:59.411Z,2.05
2022-09-03T16:27:41.529Z,1.95
2022-09-03T16:30:21.801Z,2.60
2022-09-03T16:33:24.928Z,2.03
2022-09-03T16:36:16.060Z,4.25
2022-09-03T16:39:28.670Z,4.97
2022-09-03T16:42:23.730Z,4.18
2022-09-03T16:45:36.503Z,1.33
2022-09-03T16:48:25.134Z,1.40
2022-09-03T16:51:20.959Z,3.17
2022-09-03T16:54:28.089Z,2.40
2022-09-03T16:57:06.555Z,2.13
2022-09-03T17:00:14.857Z,5.80
2022-09-03T17:03:44.307Z,2.45
2022-09-03T17:06:51.499Z,3.72
2022-09-03T17:10:05.558Z,2.60
2022-09-03T17:12:50.164Z,4.18
2022-09-03T17:15:49.664Z,1.88
2022-09-03T17:18:52.930Z,3.80
2022-09-03T17:21:48.895Z,4.15
2022-09-03T17:24:54.095Z,5.50
2022-09-03T17:27:41.277Z,3.85
2022-09-03T17:30:23.320Z,2.60
2022-09-03T17:33:07.027Z,11.18
2022-09-03T17:36:14.659Z,5.35
2022-09-03T17:39:12.929Z,6.97
2022-09-03T17:41:54.783Z,2.47
2022-09-03T17:45:05.563Z,4.65
2022-09-03T17:47:53.633Z,4.90
2022-09-03T17:50:26.327Z,4.18
2022-09-03T17:53:02.413Z,12.73
2022-09-03T17:55:45.447Z,8.38
2022-09-03T17:58:30.331Z,5.82
2022-09-03T18:01:20.388Z,6.60
2022-09-03T18:03:57.436Z,7.78
2022-09-03T18:06:40.580Z,3.95
2022-09-03T18:09:28.627Z,6.25
2022-09-03T18:12:13.431Z,8.90
2022-09-03T18:15:13.400Z,5.38
2022-09-03T18:17:51.144Z,6.20
2022-09-03T18:20:38.354Z,9.45
2022-09-03T18:23:39.649Z,4.63
2022-09-03T18:26:44.636Z,10.27
2022-09-03T18:29:44.066Z,5.22
2022-09-03T18:32:31.877Z,9.88
2022-09-03T18:35:17.831Z,7.47
2022-09-03T18:38:03.473Z,11.20
2022-09-03T18:41:20.364Z,3.50
2022-09-03T18:44:37.330Z,11.80
2022-09-03T18:48:06.029Z,8.32
2022-09-03T18:51:19.743Z,9.00
2022-09-03T18:54:50.529Z,11.07
2022-09-03T18:58:14.179Z,7.80
2022-09-03T19:01:20.017Z,6.90
2022-09-03T19:04:27.502Z,6.35
2022-09-03T19:07:30.474Z,7.75
2022-09-03T19:10:29.383Z,10.30
2022-09-03T19:13:52.577Z,7.75
2022-09-03T19:17:10.940Z,8.25
2022-09-03T19:20:18.413Z,4.63
2022-09-03T19:23:04.011Z,5.75
2022-09-03T19:25:50.630Z,4.82
2022-09-03T19:28:45.472Z,7.10
2022-09-03T19:32:00.267Z,6.28
2022-09-03T19:35:03.533Z,9.82
2022-09-03T19:38:18.570Z,7.30
2022-09-03T19:41:12.176Z,8.38
2022-09-03T19:44:38.683Z,6.40
2022-09-03T19:47:27.525Z,5.70
2022-09-03T19:50:37.493Z,10.02
2022-09-03T19:53:31.493Z,10.77
2022-09-03T19:56:29.918Z,7.35
2022-09-03T19:59:28.946Z,9.27
2022-09-03T20:02:14.572Z,7.40
2022-09-03T20:05:16.227Z,12.07
2022-09-03T20:08:03.007Z,9.80
2022-09-03T20:10:29.947Z,8.80
2022-09-03T20:13:13.498Z,9.73
2022-09-03T20:16:25.926Z,6.45
2022-09-03T20:19:15.994Z,6.85
2022-09-03T20:25:28.107Z,13.02
2022-09-03T20:28:07.234Z,6.38
2022-09-03T20:30:51.192Z,5.10
2022-09-03T20:33:45.411Z,4.10
2022-09-03T20:36:41.188Z,6.15
2022-09-03T20:39:41.257Z,9.02
2022-09-03T20:42:39.317Z,8.00
2022-09-03T20:45:33.876Z,6.10
2022-09-03T20:48:28.489Z,8.60
2022-09-03T20:51:22.791Z,10.75
2022-09-03T20:54:08.822Z,9.02
2022-09-03T20:57:00.086Z,7.03
2022-09-03T20:59:45.521Z,9.93
2022-09-03T21:02:37.225Z,8.52
2022-09-03T21:05:29.651Z,5.93
2022-09-03T21:08:11.529Z,6.53
2022-09-03T21:11:06.326Z,7.95
2022-09-03T21:14:05.541Z,7.55
2022-09-03T21:16:38.389Z,7.32
2022-09-03T21:19:20.962Z,7.18
2022-09-03T21:22:04.818Z,8.02
2022-09-03T21:24:46.311Z,6.13
2022-09-03T21:27:20.844Z,6.63
2022-09-03T21:30:06.452Z,7.53
2022-09-03T21:33:04.691Z,8.85
2022-09-03T21:35:49.786Z,11.63
2022-09-03T21:38:27.922Z,8.05
2022-09-03T22:08:45.485Z,17.50
2022-09-03T22:11:25.093Z,11.60
2022-09-03T23:10:10.304Z,27.60
2022-09-03T23:41:27.024Z,17.23
2022-09-03T23:44:52.117Z,17.58
